LFRU/MXN METAR and TAF weather

Enter ICAO airport designator
Station Type Date Time Source
LFRU METAR 2020/11/27 14:00 UTC NOAA

LFRU 271400Z AUTO 09005KT 050V110 4700 BR NSC 12/09 Q1012


Station Type Date Time Source
LFRU Decoded METAR 2020/11/27 14:00 UTC NOAA

Morlaix / Ploujean, France (LFRU) 48-36N 003-49W
Nov 27, 2020 - 09:00 AM EST / 2020.11.27 1400 UTC
Wind: from the E (090 degrees) at 6 MPH (5 KT) (direction variable):0
Visibility: 2 mile(s):0
Weather: mist
Temperature: 53 F (12 C)
Dew Point: 48 F (9 C)
Relative Humidity: 81%
Pressure (altimeter): 29.88 in. Hg (1012 hPa)
ob: LFRU 271400Z AUTO 09005KT 050V110 4700 BR NSC 12/09 Q1012
cycle: 14

Station Type Date Time Source
LFRU TAF UTC NOAA

Error!

Example: see airport list